createdAt,value
2019-02-14T00:00:04.915Z,99846.55
2019-02-14T00:04:11.382Z,99848.80
2019-02-14T00:08:16.276Z,99851.45
2019-02-14T00:12:21.534Z,99851.63
2019-02-14T00:16:26.413Z,99852.87
2019-02-14T00:20:31.305Z,99858.03
2019-02-14T00:24:36.196Z,99853.23
2019-02-14T00:28:41.096Z,99853.98
2019-02-14T00:32:46.005Z,99857.83
2019-02-14T00:36:50.903Z,99853.72
2019-02-14T00:40:55.785Z,99849.70
2019-02-14T00:45:00.684Z,99850.52
2019-02-14T00:49:05.581Z,99851.01
2019-02-14T00:53:10.484Z,99844.90
2019-02-14T00:57:16.343Z,99843.25
2019-02-14T01:01:21.249Z,99851.40
2019-02-14T01:05:33.487Z,99842.39
2019-02-14T01:09:32.737Z,99847.40
2019-02-14T01:13:37.631Z,99839.42
2019-02-14T01:17:42.525Z,99843.42
2019-02-14T01:21:47.416Z,99847.16
2019-02-14T01:25:52.312Z,99834.59
2019-02-14T01:29:57.204Z,99845.44
2019-02-14T01:34:02.100Z,99837.78
2019-02-14T01:38:07.000Z,99845.98
2019-02-14T01:42:11.883Z,99847.20
2019-02-14T01:46:16.783Z,99849.25
2019-02-14T01:50:21.688Z,99849.25
2019-02-14T01:54:26.586Z,99844.34
2019-02-14T01:58:31.476Z,99843.52
2019-02-14T02:02:36.370Z,99838.90
2019-02-14T02:06:41.258Z,99841.30
2019-02-14T02:10:46.146Z,99837.42
2019-02-14T02:14:51.037Z,99841.36
2019-02-14T02:18:55.935Z,99843.63
2019-02-14T02:23:01.807Z,99843.54
2019-02-14T02:27:06.691Z,99842.25
2019-02-14T02:31:11.587Z,99841.10
2019-02-14T02:35:16.481Z,99839.02
2019-02-14T02:39:21.376Z,99839.67
2019-02-14T02:43:26.340Z,99840.27
2019-02-14T02:47:31.402Z,99837.91
2019-02-14T02:51:36.340Z,99837.98
2019-02-14T02:55:41.182Z,99843.53
2019-02-14T02:59:46.087Z,99847.16
2019-02-14T03:03:50.974Z,99851.34
2019-02-14T03:07:55.865Z,99849.70
2019-02-14T03:12:00.750Z,99847.47
2019-02-14T03:16:05.636Z,99851.07
2019-02-14T03:20:12.331Z,99849.03
2019-02-14T03:24:17.224Z,99850.80
2019-02-14T03:28:22.102Z,99863.08
2019-02-14T03:32:26.989Z,99863.33
2019-02-14T03:36:31.877Z,99852.03
2019-02-14T03:40:36.837Z,99849.59
2019-02-14T03:44:41.742Z,99847.30
2019-02-14T03:48:46.630Z,99857.17
2019-02-14T03:52:51.507Z,99849.52
2019-02-14T03:56:56.389Z,99853.84
2019-02-14T04:01:01.279Z,99843.62
2019-02-14T04:05:07.103Z,99859.47
2019-02-14T04:09:12.012Z,99861.17
2019-02-14T04:13:16.879Z,99867.08
2019-02-14T04:17:21.766Z,99860.64
2019-02-14T04:21:26.651Z,99865.30
2019-02-14T04:25:31.539Z,99866.80
2019-02-14T04:29:36.426Z,99867.39
2019-02-14T04:33:41.315Z,99866.43
2019-02-14T04:37:46.207Z,99869.36
2019-02-14T04:41:51.105Z,99870.95
2019-02-14T04:45:56.009Z,99872.37
2019-02-14T04:50:00.917Z,99872.92
2019-02-14T04:54:05.817Z,99866.23
2019-02-14T04:58:10.703Z,99869.82
2019-02-14T05:02:15.605Z,99864.52
2019-02-14T05:06:20.513Z,99868.94
2019-02-14T05:10:25.406Z,99868.04
2019-02-14T05:14:30.310Z,99865.34
2019-02-14T05:18:35.197Z,99862.73
2019-02-14T05:22:40.092Z,99873.13
2019-02-14T05:26:44.989Z,99868.45
2019-02-14T05:30:49.888Z,99869.50
2019-02-14T05:34:54.785Z,99877.09
2019-02-14T05:38:59.677Z,99873.40
2019-02-14T05:43:04.587Z,99880.71
2019-02-14T05:47:09.483Z,99872.45
2019-02-14T05:51:14.394Z,99870.67
2019-02-14T05:55:19.282Z,99874.62
2019-02-14T05:59:24.182Z,99874.69
2019-02-14T06:03:29.067Z,99874.84
2019-02-14T06:07:33.968Z,99879.05
2019-02-14T06:11:38.868Z,99872.87
2019-02-14T06:15:43.778Z,99884.42
2019-02-14T06:19:48.674Z,99892.72
2019-02-14T06:23:53.564Z,99893.70
2019-02-14T06:27:58.477Z,99894.16
2019-02-14T06:32:03.363Z,99898.81
2019-02-14T06:36:08.275Z,99901.55
2019-02-14T06:40:14.715Z,99903.11
2019-02-14T06:44:19.618Z,99908.40
2019-02-14T06:48:24.508Z,99906.07
2019-02-14T06:52:29.400Z,99914.66
2019-02-14T06:56:34.294Z,99917.33
2019-02-14T07:00:39.188Z,99928.80
2019-02-14T07:04:44.089Z,99937.58
2019-02-14T07:08:48.980Z,99947.34
2019-02-14T07:12:53.876Z,99951.03
2019-02-14T07:16:58.776Z,99951.42
2019-02-14T07:21:03.668Z,99957.99
2019-02-14T07:25:10.788Z,99950.70
2019-02-14T07:29:15.682Z,99962.91
2019-02-14T07:33:20.622Z,99965.78
2019-02-14T07:37:27.169Z,99972.19
2019-02-14T07:41:32.062Z,99966.81
2019-02-14T07:45:36.973Z,99977.34
2019-02-14T07:49:41.855Z,99975.30
2019-02-14T07:53:46.767Z,99976.14
2019-02-14T07:57:51.665Z,99976.19
2019-02-14T08:01:56.576Z,99997.06
2019-02-14T08:06:01.477Z,100002.05
2019-02-14T08:10:11.498Z,100006.14
2019-02-14T08:14:16.417Z,100005.30
2019-02-14T08:18:21.315Z,100005.50
2019-02-14T08:22:26.225Z,100002.77
2019-02-14T08:26:31.132Z,100005.97
2019-02-14T08:30:36.058Z,100012.94
2019-02-14T08:34:41.783Z,100016.92
2019-02-14T08:38:46.694Z,100032.18
2019-02-14T08:42:51.602Z,100020.21
2019-02-14T08:46:56.501Z,100010.48
2019-02-14T08:51:01.395Z,100006.06
2019-02-14T08:55:09.919Z,100003.41
2019-02-14T08:59:14.619Z,100005.52
2019-02-14T09:03:19.517Z,99996.45
2019-02-14T09:07:24.404Z,99988.80
2019-02-14T09:11:29.300Z,99989.36
2019-02-14T09:15:36.281Z,99984.34
2019-02-14T09:19:41.176Z,99983.00
2019-02-14T09:23:46.084Z,99983.91
2019-02-14T09:27:50.975Z,99984.91
2019-02-14T09:31:55.862Z,99982.44
2019-02-14T09:36:00.755Z,99973.42
2019-02-14T09:40:08.760Z,99961.68
2019-02-14T09:44:13.664Z,99954.58
2019-02-14T09:48:18.559Z,99970.45
2019-02-14T09:52:23.448Z,99971.96
2019-02-14T09:56:28.362Z,99965.32
2019-02-14T10:00:33.239Z,99963.77
2019-02-14T10:04:38.137Z,99971.70
2019-02-14T10:08:43.054Z,99975.70
2019-02-14T10:12:47.928Z,99976.30
2019-02-14T10:16:53.896Z,99971.23
2019-02-14T10:20:58.802Z,99970.02
2019-02-14T10:25:04.568Z,99969.65
2019-02-14T10:29:09.466Z,99971.91
2019-02-14T10:33:14.356Z,99974.98
2019-02-14T10:37:19.252Z,99978.98
2019-02-14T10:41:24.148Z,99971.19
2019-02-14T10:45:29.040Z,99969.48
2019-02-14T10:49:33.944Z,99959.95
2019-02-14T10:53:38.822Z,99965.17
2019-02-14T10:57:44.091Z,99959.56
2019-02-14T11:01:49.959Z,99959.58
2019-02-14T11:05:54.853Z,99951.36
2019-02-14T11:09:59.766Z,99949.27
2019-02-14T11:14:04.661Z,99938.82
2019-02-14T11:18:09.561Z,99937.09
2019-02-14T11:22:14.456Z,99934.44
2019-02-14T11:26:19.359Z,99933.97
2019-02-14T11:30:24.921Z,99937.33
2019-02-14T11:34:29.812Z,99923.20
2019-02-14T11:38:40.436Z,99909.89
2019-02-14T11:42:41.315Z,99916.65
2019-02-14T11:46:51.478Z,99919.38
2019-02-14T11:50:52.819Z,99920.83
2019-02-14T11:54:57.722Z,99915.77
2019-02-14T11:59:02.614Z,99906.84
2019-02-14T12:03:07.513Z,99906.74
2019-02-14T12:07:12.415Z,99905.47
2019-02-14T12:11:17.319Z,99909.78
2019-02-14T12:15:23.609Z,99914.09
2019-02-14T12:19:28.564Z,99900.85
2019-02-14T12:23:33.470Z,99898.67
2019-02-14T12:27:38.379Z,99897.42
2019-02-14T12:31:43.301Z,99887.37
2019-02-14T12:35:48.195Z,99888.23
2019-02-14T12:39:53.097Z,99881.30
2019-02-14T12:43:58.001Z,99879.23
2019-02-14T12:48:02.908Z,99887.34
2019-02-14T12:52:07.798Z,99879.66
2019-02-14T12:56:12.703Z,99870.30
2019-02-14T13:00:24.961Z,99874.52
2019-02-14T13:04:29.802Z,99864.22
2019-02-14T13:08:34.702Z,99851.61
2019-02-14T13:12:39.633Z,99848.50
2019-02-14T13:16:44.504Z,99848.45
2019-02-14T13:20:49.414Z,99843.14
2019-02-14T13:24:54.318Z,99838.76
2019-02-14T13:28:59.225Z,99835.17
2019-02-14T13:33:04.304Z,99840.75
2019-02-14T13:37:09.477Z,99841.14
2019-02-14T13:41:14.376Z,99836.66
2019-02-14T13:45:22.077Z,99833.55
2019-02-14T13:49:26.933Z,99830.81
2019-02-14T13:53:31.849Z,99825.01
2019-02-14T13:57:36.735Z,99814.78
2019-02-14T14:01:41.714Z,99802.30
2019-02-14T14:05:46.640Z,99798.67
2019-02-14T14:09:51.539Z,99795.53
2019-02-14T14:13:56.445Z,99802.97
2019-02-14T14:18:01.347Z,99802.97
2019-02-14T14:22:06.245Z,99794.28
2019-02-14T14:26:11.153Z,99795.59
2019-02-14T14:30:16.083Z,99793.79
2019-02-14T14:34:20.977Z,99795.08
2019-02-14T14:38:25.877Z,99790.66
2019-02-14T14:42:41.179Z,99789.78
2019-02-14T14:46:46.101Z,99788.15
2019-02-14T14:50:50.997Z,99786.86
2019-02-14T14:54:55.896Z,99786.47
2019-02-14T14:59:00.793Z,99782.09
2019-02-14T15:03:05.701Z,99792.09
2019-02-14T15:07:10.609Z,99791.21
2019-02-14T15:11:15.515Z,99789.47
2019-02-14T15:15:20.423Z,99794.72
2019-02-14T15:19:25.321Z,99790.40
2019-02-14T15:23:30.246Z,99786.86
2019-02-14T15:27:35.147Z,99788.17
2019-02-14T15:31:40.046Z,99783.43
2019-02-14T15:35:45.023Z,99779.63
2019-02-14T15:39:49.936Z,99788.95
2019-02-14T15:43:54.847Z,99785.13
2019-02-14T15:47:59.734Z,99776.45
2019-02-14T15:52:05.967Z,99777.39
2019-02-14T15:56:11.294Z,99777.63
2019-02-14T16:00:16.176Z,99773.93
2019-02-14T16:04:21.082Z,99775.41
2019-02-14T16:08:25.981Z,99781.67
2019-02-14T16:12:31.975Z,99779.63
2019-02-14T16:16:36.890Z,99787.63
2019-02-14T16:20:42.560Z,99787.29
2019-02-14T16:24:48.400Z,99790.19
2019-02-14T16:28:53.292Z,99790.45
2019-02-14T16:32:58.195Z,99783.16
2019-02-14T16:37:03.665Z,99789.80
2019-02-14T16:41:08.563Z,99793.86
2019-02-14T16:45:13.468Z,99796.52
2019-02-14T16:49:18.388Z,99800.02
2019-02-14T16:53:23.278Z,99800.02
2019-02-14T16:57:28.175Z,99810.05
2019-02-14T17:01:33.064Z,99812.26
2019-02-14T17:05:37.966Z,99809.61
2019-02-14T17:09:42.861Z,99822.20
2019-02-14T17:13:47.770Z,99823.91
2019-02-14T17:17:52.664Z,99825.16
2019-02-14T17:21:57.548Z,99837.26
2019-02-14T17:26:02.443Z,99830.67
2019-02-14T17:30:09.082Z,99828.45
2019-02-14T17:34:13.977Z,99827.02
2019-02-14T17:38:18.885Z,99833.42
2019-02-14T17:42:23.776Z,99837.23
2019-02-14T17:46:28.676Z,99837.44
2019-02-14T17:50:33.597Z,99844.72
2019-02-14T17:54:38.500Z,99843.28
2019-02-14T17:58:43.393Z,99844.09
2019-02-14T18:02:48.290Z,99845.62
2019-02-14T18:06:53.182Z,99845.97
2019-02-14T18:10:58.086Z,99845.03
2019-02-14T18:15:03.163Z,99841.13
2019-02-14T18:19:08.325Z,99845.84
2019-02-14T18:23:13.217Z,99853.75
2019-02-14T18:27:18.173Z,99846.36
2019-02-14T18:31:23.090Z,99846.94
2019-02-14T18:35:28.002Z,99846.34
2019-02-14T18:39:32.909Z,99855.35
2019-02-14T18:43:37.826Z,99849.91
2019-02-14T18:47:42.722Z,99836.09
2019-02-14T18:51:47.627Z,99841.95
2019-02-14T18:55:52.532Z,99839.11
2019-02-14T18:59:57.433Z,99836.91
2019-02-14T19:04:02.333Z,99841.07
2019-02-14T19:08:07.237Z,99830.97
2019-02-14T19:12:12.415Z,99824.42
2019-02-14T19:16:17.299Z,99832.53
2019-02-14T19:20:22.215Z,99826.52
2019-02-14T19:24:27.122Z,99826.09
2019-02-14T19:28:32.010Z,99831.92
2019-02-14T19:32:36.925Z,99826.70
2019-02-14T19:36:41.811Z,99830.09
2019-02-14T19:40:46.731Z,99816.91
2019-02-14T19:44:51.613Z,99817.33
2019-02-14T19:48:56.514Z,99800.56
2019-02-14T19:53:01.405Z,99809.97
2019-02-14T19:57:06.302Z,99811.75
2019-02-14T20:01:11.206Z,99806.53
2019-02-14T20:05:16.108Z,99810.87
2019-02-14T20:09:21.004Z,99812.67
2019-02-14T20:13:25.903Z,99810.92
2019-02-14T20:17:31.776Z,99809.16
2019-02-14T20:21:36.742Z,99814.58
2019-02-14T20:25:41.574Z,99805.94
2019-02-14T20:29:46.477Z,99805.11
2019-02-14T20:33:51.377Z,99808.53
2019-02-14T20:37:56.285Z,99811.69
2019-02-14T20:42:01.195Z,99813.92
2019-02-14T20:46:06.084Z,99815.67
2019-02-14T20:50:13.199Z,99807.09
2019-02-14T20:54:18.101Z,99806.02
2019-02-14T20:58:23.002Z,99811.41
2019-02-14T21:02:27.901Z,99813.73
2019-02-14T21:06:32.796Z,99806.55
2019-02-14T21:10:37.702Z,99804.95
2019-02-14T21:14:42.612Z,99803.66
2019-02-14T21:18:49.610Z,99808.92
2019-02-14T21:22:54.117Z,99815.66
2019-02-14T21:26:59.019Z,99814.25
2019-02-14T21:31:03.946Z,99813.98
2019-02-14T21:35:08.911Z,99812.03
2019-02-14T21:39:13.796Z,99813.27
2019-02-14T21:43:18.704Z,99814.09
2019-02-14T21:47:23.570Z,99815.91
2019-02-14T21:51:28.473Z,99814.21
2019-02-14T21:55:33.389Z,99806.92
2019-02-14T21:59:38.276Z,99808.67
2019-02-14T22:03:43.200Z,99814.30
2019-02-14T22:07:49.250Z,99819.27
2019-02-14T22:11:54.406Z,99819.11
2019-02-14T22:15:59.303Z,99820.64
2019-02-14T22:20:06.943Z,99813.73
2019-02-14T22:24:12.579Z,99807.21
2019-02-14T22:28:18.467Z,99814.23
2019-02-14T22:32:24.606Z,99806.37
2019-02-14T22:36:29.509Z,99796.72
2019-02-14T22:40:34.423Z,99793.00
2019-02-14T22:44:39.320Z,99804.69
2019-02-14T22:48:44.214Z,99806.55
2019-02-14T22:52:49.113Z,99798.38
2019-02-14T22:56:54.018Z,99806.97
2019-02-14T23:01:00.060Z,99804.36
2019-02-14T23:05:08.178Z,99803.12
2019-02-14T23:09:13.509Z,99801.30
2019-02-14T23:13:18.421Z,99795.93
2019-02-14T23:17:23.331Z,99796.28
2019-02-14T23:21:28.268Z,99801.61
2019-02-14T23:25:33.131Z,99795.52
2019-02-14T23:29:38.015Z,99796.56
2019-02-14T23:33:42.919Z,99794.94
2019-02-14T23:37:47.835Z,99800.56
2019-02-14T23:41:52.733Z,99803.27
2019-02-14T23:45:57.656Z,99799.77
2019-02-14T23:50:02.597Z,99798.87
2019-02-14T23:54:07.495Z,99799.77
2019-02-14T23:58:12.404Z,99795.48
